sensor_id;sensor_type;location;lat;lon;timestamp;P1;durP1;ratioP1;P2;durP2;ratioP2
64601;SDS011;68371;42.630;23.192;2023-08-24T00:01:51;12.23;;;8.55;;
64601;SDS011;68371;42.630;23.192;2023-08-24T00:04:17;10.40;;;8.30;;
64601;SDS011;68371;42.630;23.192;2023-08-24T00:06:45;9.32;;;8.05;;
64601;SDS011;68371;42.630;23.192;2023-08-24T00:09:12;11.63;;;8.25;;
64601;SDS011;68371;42.630;23.192;2023-08-24T00:11:40;16.02;;;8.70;;
64601;SDS011;68371;42.630;23.192;2023-08-24T00:14:07;13.40;;;8.55;;
64601;SDS011;68371;42.630;23.192;2023-08-24T00:16:35;11.93;;;8.38;;
64601;SDS011;68371;42.630;23.192;2023-08-24T00:19:01;13.45;;;8.80;;
64601;SDS011;68371;42.630;23.192;2023-08-24T00:21:28;14.70;;;9.10;;
64601;SDS011;68371;42.630;23.192;2023-08-24T00:23:56;10.27;;;8.15;;
64601;SDS011;68371;42.630;23.192;2023-08-24T00:26:24;10.95;;;8.38;;
64601;SDS011;68371;42.630;23.192;2023-08-24T00:28:51;10.70;;;8.40;;
64601;SDS011;68371;42.630;23.192;2023-08-24T00:31:18;10.00;;;8.60;;
64601;SDS011;68371;42.630;23.192;2023-08-24T00:33:45;10.38;;;8.40;;
64601;SDS011;68371;42.630;23.192;2023-08-24T00:36:11;10.57;;;8.57;;
64601;SDS011;68371;42.630;23.192;2023-08-24T00:38:38;12.13;;;8.70;;
64601;SDS011;68371;42.630;23.192;2023-08-24T00:41:06;10.57;;;8.77;;
64601;SDS011;68371;42.630;23.192;2023-08-24T00:43:33;13.32;;;9.00;;
64601;SDS011;68371;42.630;23.192;2023-08-24T00:46:01;14.55;;;8.60;;
64601;SDS011;68371;42.630;23.192;2023-08-24T00:48:30;12.98;;;8.95;;
64601;SDS011;68371;42.630;23.192;2023-08-24T00:50:57;14.95;;;9.20;;
64601;SDS011;68371;42.630;23.192;2023-08-24T00:53:26;15.52;;;8.80;;
64601;SDS011;68371;42.630;23.192;2023-08-24T00:55:55;12.50;;;9.18;;
64601;SDS011;68371;42.630;23.192;2023-08-24T00:58:23;12.20;;;9.52;;
64601;SDS011;68371;42.630;23.192;2023-08-24T01:00:50;10.52;;;9.00;;
64601;SDS011;68371;42.630;23.192;2023-08-24T01:03:18;10.52;;;9.05;;
64601;SDS011;68371;42.630;23.192;2023-08-24T01:05:45;11.13;;;8.95;;
64601;SDS011;68371;42.630;23.192;2023-08-24T01:08:12;11.52;;;9.48;;
64601;SDS011;68371;42.630;23.192;2023-08-24T01:10:40;11.93;;;8.85;;
64601;SDS011;68371;42.630;23.192;2023-08-24T01:13:15;11.48;;;8.90;;
64601;SDS011;68371;42.630;23.192;2023-08-24T01:15:52;13.57;;;8.93;;
64601;SDS011;68371;42.630;23.192;2023-08-24T01:18:26;15.25;;;8.70;;
64601;SDS011;68371;42.630;23.192;2023-08-24T01:20:56;34.15;;;9.70;;
64601;SDS011;68371;42.630;23.192;2023-08-24T01:23:27;16.10;;;9.10;;
64601;SDS011;68371;42.630;23.192;2023-08-24T01:26:11;15.35;;;9.50;;
64601;SDS011;68371;42.630;23.192;2023-08-24T01:28:38;12.77;;;9.07;;
64601;SDS011;68371;42.630;23.192;2023-08-24T01:31:07;15.18;;;9.23;;
64601;SDS011;68371;42.630;23.192;2023-08-24T01:33:34;14.38;;;9.52;;
64601;SDS011;68371;42.630;23.192;2023-08-24T01:36:01;10.30;;;9.05;;
64601;SDS011;68371;42.630;23.192;2023-08-24T01:38:28;11.90;;;9.02;;
64601;SDS011;68371;42.630;23.192;2023-08-24T01:40:59;12.18;;;9.15;;
64601;SDS011;68371;42.630;23.192;2023-08-24T01:43:30;13.70;;;9.18;;
64601;SDS011;68371;42.630;23.192;2023-08-24T01:46:01;11.77;;;9.30;;
64601;SDS011;68371;42.630;23.192;2023-08-24T01:48:30;11.32;;;9.00;;
64601;SDS011;68371;42.630;23.192;2023-08-24T01:50:58;11.15;;;9.18;;
64601;SDS011;68371;42.630;23.192;2023-08-24T01:53:27;15.55;;;9.52;;
64601;SDS011;68371;42.630;23.192;2023-08-24T01:55:59;13.00;;;9.30;;
64601;SDS011;68371;42.630;23.192;2023-08-24T01:58:25;13.77;;;10.27;;
64601;SDS011;68371;42.630;23.192;2023-08-24T02:00:53;11.93;;;9.10;;
64601;SDS011;68371;42.630;23.192;2023-08-24T02:03:20;11.13;;;9.05;;
64601;SDS011;68371;42.630;23.192;2023-08-24T02:05:47;12.20;;;9.13;;
64601;SDS011;68371;42.630;23.192;2023-08-24T02:08:13;11.43;;;8.88;;
64601;SDS011;68371;42.630;23.192;2023-08-24T02:10:40;14.88;;;9.23;;
64601;SDS011;68371;42.630;23.192;2023-08-24T02:13:07;12.35;;;9.10;;
64601;SDS011;68371;42.630;23.192;2023-08-24T02:15:33;11.48;;;9.07;;
64601;SDS011;68371;42.630;23.192;2023-08-24T02:18:01;11.48;;;8.90;;
64601;SDS011;68371;42.630;23.192;2023-08-24T02:20:29;10.85;;;8.77;;
64601;SDS011;68371;42.630;23.192;2023-08-24T02:22:56;10.88;;;8.82;;
64601;SDS011;68371;42.630;23.192;2023-08-24T02:25:22;12.13;;;9.02;;
64601;SDS011;68371;42.630;23.192;2023-08-24T02:27:49;12.75;;;9.18;;
64601;SDS011;68371;42.630;23.192;2023-08-24T02:30:16;16.17;;;9.13;;
64601;SDS011;68371;42.630;23.192;2023-08-24T02:32:43;10.68;;;8.48;;
64601;SDS011;68371;42.630;23.192;2023-08-24T02:35:11;14.10;;;9.35;;
64601;SDS011;68371;42.630;23.192;2023-08-24T02:37:38;12.45;;;8.93;;
64601;SDS011;68371;42.630;23.192;2023-08-24T02:40:05;13.38;;;9.00;;
64601;SDS011;68371;42.630;23.192;2023-08-24T02:42:34;10.98;;;8.75;;
64601;SDS011;68371;42.630;23.192;2023-08-24T02:45:01;10.55;;;8.55;;
64601;SDS011;68371;42.630;23.192;2023-08-24T02:47:30;13.18;;;9.15;;
64601;SDS011;68371;42.630;23.192;2023-08-24T02:49:56;12.00;;;8.65;;
64601;SDS011;68371;42.630;23.192;2023-08-24T02:52:24;10.05;;;8.38;;
64601;SDS011;68371;42.630;23.192;2023-08-24T02:54:51;10.18;;;8.27;;
64601;SDS011;68371;42.630;23.192;2023-08-24T02:57:18;9.57;;;8.30;;
64601;SDS011;68371;42.630;23.192;2023-08-24T02:59:44;14.45;;;8.63;;
64601;SDS011;68371;42.630;23.192;2023-08-24T03:02:11;12.52;;;8.73;;
64601;SDS011;68371;42.630;23.192;2023-08-24T03:04:38;13.68;;;8.48;;
64601;SDS011;68371;42.630;23.192;2023-08-24T03:07:05;16.00;;;8.30;;
64601;SDS011;68371;42.630;23.192;2023-08-24T03:09:34;13.25;;;8.68;;
64601;SDS011;68371;42.630;23.192;2023-08-24T03:12:01;13.57;;;8.35;;
64601;SDS011;68371;42.630;23.192;2023-08-24T03:14:28;16.75;;;8.57;;
64601;SDS011;68371;42.630;23.192;2023-08-24T03:16:56;12.52;;;8.60;;
64601;SDS011;68371;42.630;23.192;2023-08-24T03:19:22;12.23;;;7.82;;
64601;SDS011;68371;42.630;23.192;2023-08-24T03:21:49;10.88;;;8.43;;
64601;SDS011;68371;42.630;23.192;2023-08-24T03:24:16;14.45;;;7.95;;
64601;SDS011;68371;42.630;23.192;2023-08-24T03:26:44;15.25;;;9.18;;
64601;SDS011;68371;42.630;23.192;2023-08-24T03:29:10;13.93;;;8.80;;
64601;SDS011;68371;42.630;23.192;2023-08-24T03:31:37;12.38;;;8.43;;
64601;SDS011;68371;42.630;23.192;2023-08-24T03:34:04;14.45;;;8.60;;
64601;SDS011;68371;42.630;23.192;2023-08-24T03:36:31;13.10;;;8.57;;
64601;SDS011;68371;42.630;23.192;2023-08-24T03:38:58;13.88;;;8.85;;
64601;SDS011;68371;42.630;23.192;2023-08-24T03:41:24;12.07;;;8.73;;
64601;SDS011;68371;42.630;23.192;2023-08-24T03:43:52;10.80;;;9.20;;
64601;SDS011;68371;42.630;23.192;2023-08-24T03:46:20;11.63;;;8.80;;
64601;SDS011;68371;42.630;23.192;2023-08-24T03:48:46;10.48;;;8.70;;
64601;SDS011;68371;42.630;23.192;2023-08-24T03:51:13;18.58;;;9.13;;
64601;SDS011;68371;42.630;23.192;2023-08-24T03:53:41;12.70;;;8.48;;
64601;SDS011;68371;42.630;23.192;2023-08-24T03:56:07;13.48;;;8.68;;
64601;SDS011;68371;42.630;23.192;2023-08-24T03:58:34;13.35;;;8.80;;
64601;SDS011;68371;42.630;23.192;2023-08-24T04:01:03;11.93;;;8.65;;
64601;SDS011;68371;42.630;23.192;2023-08-24T04:05:58;16.05;;;8.48;;
64601;SDS011;68371;42.630;23.192;2023-08-24T04:08:25;12.32;;;9.07;;
64601;SDS011;68371;42.630;23.192;2023-08-24T04:10:51;12.35;;;9.43;;
64601;SDS011;68371;42.630;23.192;2023-08-24T04:13:18;16.40;;;8.57;;
64601;SDS011;68371;42.630;23.192;2023-08-24T04:15:45;14.38;;;9.05;;
64601;SDS011;68371;42.630;23.192;2023-08-24T04:18:13;12.82;;;8.57;;
64601;SDS011;68371;42.630;23.192;2023-08-24T04:20:39;15.57;;;8.50;;
64601;SDS011;68371;42.630;23.192;2023-08-24T04:23:06;13.88;;;8.82;;
64601;SDS011;68371;42.630;23.192;2023-08-24T04:25:33;15.90;;;9.05;;
64601;SDS011;68371;42.630;23.192;2023-08-24T04:28:00;18.17;;;8.65;;
64601;SDS011;68371;42.630;23.192;2023-08-24T04:30:27;18.58;;;9.55;;
64601;SDS011;68371;42.630;23.192;2023-08-24T04:32:54;16.05;;;8.52;;
64601;SDS011;68371;42.630;23.192;2023-08-24T04:35:24;14.27;;;9.65;;
64601;SDS011;68371;42.630;23.192;2023-08-24T04:37:51;15.02;;;8.45;;
64601;SDS011;68371;42.630;23.192;2023-08-24T04:40:18;17.65;;;8.50;;
64601;SDS011;68371;42.630;23.192;2023-08-24T04:42:47;13.63;;;8.60;;
64601;SDS011;68371;42.630;23.192;2023-08-24T04:45:14;19.33;;;9.13;;
64601;SDS011;68371;42.630;23.192;2023-08-24T04:47:40;16.10;;;9.18;;
64601;SDS011;68371;42.630;23.192;2023-08-24T04:50:07;16.63;;;10.15;;
64601;SDS011;68371;42.630;23.192;2023-08-24T04:52:36;12.52;;;9.23;;
64601;SDS011;68371;42.630;23.192;2023-08-24T04:55:03;19.98;;;9.20;;
64601;SDS011;68371;42.630;23.192;2023-08-24T04:57:30;12.48;;;9.23;;
64601;SDS011;68371;42.630;23.192;2023-08-24T04:59:57;18.65;;;9.65;;
64601;SDS011;68371;42.630;23.192;2023-08-24T05:02:24;15.25;;;8.80;;
64601;SDS011;68371;42.630;23.192;2023-08-24T05:04:51;13.48;;;9.27;;
64601;SDS011;68371;42.630;23.192;2023-08-24T05:07:17;11.93;;;8.25;;
64601;SDS011;68371;42.630;23.192;2023-08-24T05:09:45;13.02;;;8.55;;
64601;SDS011;68371;42.630;23.192;2023-08-24T05:12:12;14.73;;;8.80;;
64601;SDS011;68371;42.630;23.192;2023-08-24T05:14:39;12.52;;;9.18;;
64601;SDS011;68371;42.630;23.192;2023-08-24T05:17:05;19.50;;;10.05;;
64601;SDS011;68371;42.630;23.192;2023-08-24T05:19:32;18.48;;;10.77;;
64601;SDS011;68371;42.630;23.192;2023-08-24T05:21:59;24.42;;;9.05;;
64601;SDS011;68371;42.630;23.192;2023-08-24T05:24:25;14.93;;;9.23;;
64601;SDS011;68371;42.630;23.192;2023-08-24T05:26:53;32.25;;;9.30;;
64601;SDS011;68371;42.630;23.192;2023-08-24T05:29:20;17.40;;;9.50;;
64601;SDS011;68371;42.630;23.192;2023-08-24T05:31:47;20.83;;;9.57;;
64601;SDS011;68371;42.630;23.192;2023-08-24T05:34:13;18.60;;;9.70;;
64601;SDS011;68371;42.630;23.192;2023-08-24T05:36:40;14.23;;;9.35;;
64601;SDS011;68371;42.630;23.192;2023-08-24T05:39:07;13.85;;;9.43;;
64601;SDS011;68371;42.630;23.192;2023-08-24T05:41:34;18.85;;;9.50;;
64601;SDS011;68371;42.630;23.192;2023-08-24T05:44:03;20.15;;;9.02;;
64601;SDS011;68371;42.630;23.192;2023-08-24T05:46:31;13.07;;;9.38;;
64601;SDS011;68371;42.630;23.192;2023-08-24T05:48:57;12.32;;;9.02;;
64601;SDS011;68371;42.630;23.192;2023-08-24T05:51:25;15.57;;;9.23;;
64601;SDS011;68371;42.630;23.192;2023-08-24T05:53:51;17.30;;;9.25;;
64601;SDS011;68371;42.630;23.192;2023-08-24T05:56:20;13.68;;;10.15;;
64601;SDS011;68371;42.630;23.192;2023-08-24T05:58:47;14.40;;;9.88;;
64601;SDS011;68371;42.630;23.192;2023-08-24T06:01:15;15.90;;;9.77;;
64601;SDS011;68371;42.630;23.192;2023-08-24T06:03:42;15.05;;;9.60;;
64601;SDS011;68371;42.630;23.192;2023-08-24T06:06:09;14.63;;;9.68;;
64601;SDS011;68371;42.630;23.192;2023-08-24T06:08:35;14.73;;;9.50;;
64601;SDS011;68371;42.630;23.192;2023-08-24T06:11:02;21.05;;;9.65;;
64601;SDS011;68371;42.630;23.192;2023-08-24T06:13:30;17.95;;;9.73;;
64601;SDS011;68371;42.630;23.192;2023-08-24T06:15:56;13.20;;;8.60;;
64601;SDS011;68371;42.630;23.192;2023-08-24T06:18:24;14.10;;;8.93;;
64601;SDS011;68371;42.630;23.192;2023-08-24T06:20:51;13.60;;;8.80;;
64601;SDS011;68371;42.630;23.192;2023-08-24T06:23:18;11.77;;;9.50;;
64601;SDS011;68371;42.630;23.192;2023-08-24T06:25:45;13.07;;;8.82;;
64601;SDS011;68371;42.630;23.192;2023-08-24T06:28:12;28.95;;;9.38;;
64601;SDS011;68371;42.630;23.192;2023-08-24T06:30:39;14.07;;;8.93;;
64601;SDS011;68371;42.630;23.192;2023-08-24T06:33:08;28.42;;;8.73;;
64601;SDS011;68371;42.630;23.192;2023-08-24T06:35:37;14.75;;;8.70;;
64601;SDS011;68371;42.630;23.192;2023-08-24T06:38:04;18.95;;;8.80;;
64601;SDS011;68371;42.630;23.192;2023-08-24T06:40:31;11.68;;;8.88;;
64601;SDS011;68371;42.630;23.192;2023-08-24T06:42:58;11.38;;;8.68;;
64601;SDS011;68371;42.630;23.192;2023-08-24T06:45:24;11.52;;;9.00;;
64601;SDS011;68371;42.630;23.192;2023-08-24T06:47:51;19.67;;;8.68;;
64601;SDS011;68371;42.630;23.192;2023-08-24T06:50:18;14.43;;;8.85;;
64601;SDS011;68371;42.630;23.192;2023-08-24T06:52:46;15.45;;;9.07;;
64601;SDS011;68371;42.630;23.192;2023-08-24T06:55:13;10.80;;;8.45;;
64601;SDS011;68371;42.630;23.192;2023-08-24T06:57:40;15.10;;;8.98;;
64601;SDS011;68371;42.630;23.192;2023-08-24T07:00:07;12.20;;;8.75;;
64601;SDS011;68371;42.630;23.192;2023-08-24T07:02:35;11.35;;;8.65;;
64601;SDS011;68371;42.630;23.192;2023-08-24T07:05:02;17.27;;;9.85;;
64601;SDS011;68371;42.630;23.192;2023-08-24T07:07:33;16.02;;;8.98;;
64601;SDS011;68371;42.630;23.192;2023-08-24T07:10:02;30.27;;;9.23;;
64601;SDS011;68371;42.630;23.192;2023-08-24T07:12:31;18.45;;;9.23;;
64601;SDS011;68371;42.630;23.192;2023-08-24T07:14:58;10.43;;;8.75;;
64601;SDS011;68371;42.630;23.192;2023-08-24T07:17:24;10.98;;;8.90;;
64601;SDS011;68371;42.630;23.192;2023-08-24T07:19:51;12.07;;;8.30;;
64601;SDS011;68371;42.630;23.192;2023-08-24T07:22:18;11.38;;;8.18;;
64601;SDS011;68371;42.630;23.192;2023-08-24T07:24:45;14.23;;;8.45;;
64601;SDS011;68371;42.630;23.192;2023-08-24T07:27:15;16.77;;;8.07;;
64601;SDS011;68371;42.630;23.192;2023-08-24T07:29:42;12.75;;;8.20;;
64601;SDS011;68371;42.630;23.192;2023-08-24T07:32:08;11.85;;;7.57;;
64601;SDS011;68371;42.630;23.192;2023-08-24T07:34:35;13.90;;;8.02;;
64601;SDS011;68371;42.630;23.192;2023-08-24T07:37:02;10.05;;;8.05;;
64601;SDS011;68371;42.630;23.192;2023-08-24T07:39:29;10.13;;;7.65;;
64601;SDS011;68371;42.630;23.192;2023-08-24T07:41:56;9.23;;;7.97;;
64601;SDS011;68371;42.630;23.192;2023-08-24T07:44:24;8.98;;;7.28;;
64601;SDS011;68371;42.630;23.192;2023-08-24T07:46:51;11.23;;;7.68;;
64601;SDS011;68371;42.630;23.192;2023-08-24T07:52:15;11.00;;;7.75;;
64601;SDS011;68371;42.630;23.192;2023-08-24T07:54:41;9.95;;;8.15;;
64601;SDS011;68371;42.630;23.192;2023-08-24T07:57:09;10.05;;;7.50;;
64601;SDS011;68371;42.630;23.192;2023-08-24T07:59:37;8.63;;;7.63;;
64601;SDS011;68371;42.630;23.192;2023-08-24T08:02:04;9.27;;;7.50;;
64601;SDS011;68371;42.630;23.192;2023-08-24T08:04:31;10.85;;;8.15;;
64601;SDS011;68371;42.630;23.192;2023-08-24T08:06:57;9.88;;;7.85;;
64601;SDS011;68371;42.630;23.192;2023-08-24T08:09:24;10.07;;;8.32;;
64601;SDS011;68371;42.630;23.192;2023-08-24T08:11:51;12.23;;;8.80;;
64601;SDS011;68371;42.630;23.192;2023-08-24T08:14:18;14.15;;;8.52;;
64601;SDS011;68371;42.630;23.192;2023-08-24T08:16:47;11.65;;;8.15;;
64601;SDS011;68371;42.630;23.192;2023-08-24T08:19:14;19.70;;;9.15;;
64601;SDS011;68371;42.630;23.192;2023-08-24T08:21:43;12.73;;;9.05;;
64601;SDS011;68371;42.630;23.192;2023-08-24T08:24:09;14.05;;;8.82;;
64601;SDS011;68371;42.630;23.192;2023-08-24T08:26:37;10.30;;;8.43;;
64601;SDS011;68371;42.630;23.192;2023-08-24T08:29:04;10.43;;;8.20;;
64601;SDS011;68371;42.630;23.192;2023-08-24T08:31:31;10.52;;;8.43;;
64601;SDS011;68371;42.630;23.192;2023-08-24T08:33:59;12.13;;;9.00;;
64601;SDS011;68371;42.630;23.192;2023-08-24T08:36:26;9.30;;;8.32;;
64601;SDS011;68371;42.630;23.192;2023-08-24T08:38:54;11.40;;;8.90;;
64601;SDS011;68371;42.630;23.192;2023-08-24T08:41:22;10.13;;;8.82;;
64601;SDS011;68371;42.630;23.192;2023-08-24T08:43:53;12.23;;;8.77;;
64601;SDS011;68371;42.630;23.192;2023-08-24T08:46:20;11.77;;;9.00;;
64601;SDS011;68371;42.630;23.192;2023-08-24T08:48:47;12.85;;;9.25;;
64601;SDS011;68371;42.630;23.192;2023-08-24T08:51:18;13.73;;;9.02;;
64601;SDS011;68371;42.630;23.192;2023-08-24T08:53:45;10.68;;;9.05;;
64601;SDS011;68371;42.630;23.192;2023-08-24T08:56:12;11.43;;;8.88;;
64601;SDS011;68371;42.630;23.192;2023-08-24T08:58:39;11.73;;;9.13;;
64601;SDS011;68371;42.630;23.192;2023-08-24T09:01:08;19.75;;;9.23;;
64601;SDS011;68371;42.630;23.192;2023-08-24T09:03:35;13.77;;;9.13;;
64601;SDS011;68371;42.630;23.192;2023-08-24T09:06:04;14.57;;;9.15;;
64601;SDS011;68371;42.630;23.192;2023-08-24T09:08:32;16.05;;;9.55;;
64601;SDS011;68371;42.630;23.192;2023-08-24T09:10:59;13.00;;;9.60;;
64601;SDS011;68371;42.630;23.192;2023-08-24T09:13:28;11.98;;;8.88;;
64601;SDS011;68371;42.630;23.192;2023-08-24T09:16:02;10.07;;;8.80;;
64601;SDS011;68371;42.630;23.192;2023-08-24T09:18:33;12.02;;;8.82;;
64601;SDS011;68371;42.630;23.192;2023-08-24T09:21:07;34.28;;;9.68;;
64601;SDS011;68371;42.630;23.192;2023-08-24T09:23:35;14.88;;;9.35;;
64601;SDS011;68371;42.630;23.192;2023-08-24T09:26:03;13.02;;;9.32;;
64601;SDS011;68371;42.630;23.192;2023-08-24T09:28:31;10.07;;;8.40;;
64601;SDS011;68371;42.630;23.192;2023-08-24T09:30:59;13.75;;;8.85;;
64601;SDS011;68371;42.630;23.192;2023-08-24T09:33:26;11.32;;;8.85;;
64601;SDS011;68371;42.630;23.192;2023-08-24T09:35:54;10.63;;;9.38;;
64601;SDS011;68371;42.630;23.192;2023-08-24T09:38:26;12.20;;;9.15;;
64601;SDS011;68371;42.630;23.192;2023-08-24T09:40:56;12.57;;;9.40;;
64601;SDS011;68371;42.630;23.192;2023-08-24T09:43:23;10.07;;;9.07;;
64601;SDS011;68371;42.630;23.192;2023-08-24T09:45:51;11.55;;;8.95;;
64601;SDS011;68371;42.630;23.192;2023-08-24T09:48:18;9.98;;;8.25;;
64601;SDS011;68371;42.630;23.192;2023-08-24T09:50:46;10.43;;;7.68;;
64601;SDS011;68371;42.630;23.192;2023-08-24T09:53:15;10.18;;;7.22;;
64601;SDS011;68371;42.630;23.192;2023-08-24T09:55:44;13.52;;;7.93;;
64601;SDS011;68371;42.630;23.192;2023-08-24T09:58:17;8.43;;;7.40;;
64601;SDS011;68371;42.630;23.192;2023-08-24T10:00:45;9.05;;;7.90;;
64601;SDS011;68371;42.630;23.192;2023-08-24T10:03:13;13.93;;;8.05;;
64601;SDS011;68371;42.630;23.192;2023-08-24T10:05:45;13.45;;;8.30;;
64601;SDS011;68371;42.630;23.192;2023-08-24T10:08:14;12.23;;;8.48;;
64601;SDS011;68371;42.630;23.192;2023-08-24T10:10:43;17.20;;;8.35;;
64601;SDS011;68371;42.630;23.192;2023-08-24T10:13:12;8.98;;;8.07;;
64601;SDS011;68371;42.630;23.192;2023-08-24T10:15:46;10.73;;;8.13;;
64601;SDS011;68371;42.630;23.192;2023-08-24T10:18:14;10.40;;;7.93;;
64601;SDS011;68371;42.630;23.192;2023-08-24T10:20:42;10.57;;;7.88;;
64601;SDS011;68371;42.630;23.192;2023-08-24T10:23:10;11.73;;;8.30;;
64601;SDS011;68371;42.630;23.192;2023-08-24T10:25:39;11.43;;;8.35;;
64601;SDS011;68371;42.630;23.192;2023-08-24T10:28:07;10.25;;;8.07;;
64601;SDS011;68371;42.630;23.192;2023-08-24T10:30:35;11.75;;;8.07;;
64601;SDS011;68371;42.630;23.192;2023-08-24T10:33:04;8.43;;;7.28;;
64601;SDS011;68371;42.630;23.192;2023-08-24T10:35:32;8.43;;;6.72;;
64601;SDS011;68371;42.630;23.192;2023-08-24T10:37:59;9.50;;;7.35;;
64601;SDS011;68371;42.630;23.192;2023-08-24T10:40:37;13.60;;;7.20;;
64601;SDS011;68371;42.630;23.192;2023-08-24T10:43:09;9.38;;;6.35;;
64601;SDS011;68371;42.630;23.192;2023-08-24T10:45:54;9.40;;;5.97;;
64601;SDS011;68371;42.630;23.192;2023-08-24T10:48:24;9.25;;;6.85;;
64601;SDS011;68371;42.630;23.192;2023-08-24T10:53:45;8.25;;;6.78;;
64601;SDS011;68371;42.630;23.192;2023-08-24T10:56:14;8.02;;;6.35;;
64601;SDS011;68371;42.630;23.192;2023-08-24T10:58:42;10.10;;;6.35;;
64601;SDS011;68371;42.630;23.192;2023-08-24T11:01:14;13.27;;;6.97;;
64601;SDS011;68371;42.630;23.192;2023-08-24T11:03:46;9.98;;;6.43;;
64601;SDS011;68371;42.630;23.192;2023-08-24T11:06:19;7.07;;;6.40;;
64601;SDS011;68371;42.630;23.192;2023-08-24T11:08:48;14.68;;;6.65;;
64601;SDS011;68371;42.630;23.192;2023-08-24T11:11:18;16.42;;;6.18;;
64601;SDS011;68371;42.630;23.192;2023-08-24T11:16:45;7.57;;;6.53;;
64601;SDS011;68371;42.630;23.192;2023-08-24T11:19:14;21.30;;;6.63;;
64601;SDS011;68371;42.630;23.192;2023-08-24T11:21:42;9.10;;;6.70;;
64601;SDS011;68371;42.630;23.192;2023-08-24T11:24:12;9.30;;;7.30;;
64601;SDS011;68371;42.630;23.192;2023-08-24T11:26:40;9.65;;;7.32;;
64601;SDS011;68371;42.630;23.192;2023-08-24T11:29:08;15.95;;;7.60;;
64601;SDS011;68371;42.630;23.192;2023-08-24T11:31:34;9.93;;;7.70;;
64601;SDS011;68371;42.630;23.192;2023-08-24T11:34:02;12.27;;;7.97;;
64601;SDS011;68371;42.630;23.192;2023-08-24T11:36:31;11.48;;;7.47;;
64601;SDS011;68371;42.630;23.192;2023-08-24T11:39:13;11.45;;;7.47;;
64601;SDS011;68371;42.630;23.192;2023-08-24T11:41:41;11.30;;;7.90;;
64601;SDS011;68371;42.630;23.192;2023-08-24T11:44:07;12.38;;;8.00;;
64601;SDS011;68371;42.630;23.192;2023-08-24T11:46:34;9.73;;;8.07;;
64601;SDS011;68371;42.630;23.192;2023-08-24T11:49:04;12.15;;;7.93;;
64601;SDS011;68371;42.630;23.192;2023-08-24T11:51:33;10.70;;;7.95;;
64601;SDS011;68371;42.630;23.192;2023-08-24T11:54:00;13.82;;;7.50;;
64601;SDS011;68371;42.630;23.192;2023-08-24T11:56:29;8.55;;;7.35;;
64601;SDS011;68371;42.630;23.192;2023-08-24T11:58:56;13.80;;;8.00;;
64601;SDS011;68371;42.630;23.192;2023-08-24T12:01:23;11.77;;;7.47;;
64601;SDS011;68371;42.630;23.192;2023-08-24T12:03:52;9.90;;;7.80;;
64601;SDS011;68371;42.630;23.192;2023-08-24T12:06:19;11.90;;;7.53;;
64601;SDS011;68371;42.630;23.192;2023-08-24T12:08:47;12.95;;;7.70;;
64601;SDS011;68371;42.630;23.192;2023-08-24T12:11:16;9.25;;;8.10;;
64601;SDS011;68371;42.630;23.192;2023-08-24T12:13:45;8.90;;;7.82;;
64601;SDS011;68371;42.630;23.192;2023-08-24T12:16:13;11.15;;;7.90;;
64601;SDS011;68371;42.630;23.192;2023-08-24T12:18:49;12.82;;;8.10;;
64601;SDS011;68371;42.630;23.192;2023-08-24T12:21:17;10.80;;;7.93;;
64601;SDS011;68371;42.630;23.192;2023-08-24T12:23:55;14.35;;;8.10;;
64601;SDS011;68371;42.630;23.192;2023-08-24T12:26:23;10.77;;;7.63;;
64601;SDS011;68371;42.630;23.192;2023-08-24T12:28:50;8.55;;;7.25;;
64601;SDS011;68371;42.630;23.192;2023-08-24T12:31:17;13.73;;;7.72;;
64601;SDS011;68371;42.630;23.192;2023-08-24T12:33:45;9.63;;;8.07;;
64601;SDS011;68371;42.630;23.192;2023-08-24T12:36:23;9.95;;;7.75;;
64601;SDS011;68371;42.630;23.192;2023-08-24T12:38:49;11.23;;;7.95;;
64601;SDS011;68371;42.630;23.192;2023-08-24T12:41:18;8.50;;;7.38;;
64601;SDS011;68371;42.630;23.192;2023-08-24T12:43:44;11.75;;;7.95;;
64601;SDS011;68371;42.630;23.192;2023-08-24T12:46:11;10.48;;;7.70;;
64601;SDS011;68371;42.630;23.192;2023-08-24T12:48:38;13.23;;;7.50;;
64601;SDS011;68371;42.630;23.192;2023-08-24T12:51:04;13.40;;;7.70;;
64601;SDS011;68371;42.630;23.192;2023-08-24T12:53:31;17.02;;;7.47;;
64601;SDS011;68371;42.630;23.192;2023-08-24T12:55:58;8.07;;;7.15;;
64601;SDS011;68371;42.630;23.192;2023-08-24T12:58:26;12.48;;;7.88;;
64601;SDS011;68371;42.630;23.192;2023-08-24T13:00:53;11.82;;;7.78;;
64601;SDS011;68371;42.630;23.192;2023-08-24T13:03:19;10.38;;;7.65;;
64601;SDS011;68371;42.630;23.192;2023-08-24T13:05:46;9.07;;;7.65;;
64601;SDS011;68371;42.630;23.192;2023-08-24T13:08:13;11.07;;;7.40;;
64601;SDS011;68371;42.630;23.192;2023-08-24T13:10:40;8.32;;;7.53;;
64601;SDS011;68371;42.630;23.192;2023-08-24T13:13:07;8.43;;;7.53;;
64601;SDS011;68371;42.630;23.192;2023-08-24T13:15:35;13.52;;;7.35;;
64601;SDS011;68371;42.630;23.192;2023-08-24T13:18:02;8.65;;;7.60;;
64601;SDS011;68371;42.630;23.192;2023-08-24T13:20:29;8.32;;;7.18;;
64601;SDS011;68371;42.630;23.192;2023-08-24T13:22:56;8.85;;;7.32;;
64601;SDS011;68371;42.630;23.192;2023-08-24T13:25:23;7.95;;;7.25;;
64601;SDS011;68371;42.630;23.192;2023-08-24T13:27:49;10.07;;;7.32;;
64601;SDS011;68371;42.630;23.192;2023-08-24T13:30:16;10.90;;;7.05;;
64601;SDS011;68371;42.630;23.192;2023-08-24T13:32:44;10.43;;;7.60;;
64601;SDS011;68371;42.630;23.192;2023-08-24T13:35:11;10.63;;;7.43;;
64601;SDS011;68371;42.630;23.192;2023-08-24T13:37:38;10.45;;;7.32;;
64601;SDS011;68371;42.630;23.192;2023-08-24T13:40:05;10.18;;;7.60;;
64601;SDS011;68371;42.630;23.192;2023-08-24T13:42:33;10.27;;;7.38;;
64601;SDS011;68371;42.630;23.192;2023-08-24T13:44:59;15.73;;;7.15;;
64601;SDS011;68371;42.630;23.192;2023-08-24T13:47:26;21.58;;;6.88;;
64601;SDS011;68371;42.630;23.192;2023-08-24T13:49:54;8.18;;;6.78;;
64601;SDS011;68371;42.630;23.192;2023-08-24T13:52:22;13.80;;;7.28;;
64601;SDS011;68371;42.630;23.192;2023-08-24T13:54:49;13.65;;;8.35;;
64601;SDS011;68371;42.630;23.192;2023-08-24T13:57:15;11.38;;;8.15;;
64601;SDS011;68371;42.630;23.192;2023-08-24T13:59:42;10.70;;;7.20;;
64601;SDS011;68371;42.630;23.192;2023-08-24T14:02:09;11.05;;;7.72;;
64601;SDS011;68371;42.630;23.192;2023-08-24T14:04:36;12.25;;;7.93;;
64601;SDS011;68371;42.630;23.192;2023-08-24T14:07:05;14.52;;;6.72;;
64601;SDS011;68371;42.630;23.192;2023-08-24T14:09:32;11.65;;;6.72;;
64601;SDS011;68371;42.630;23.192;2023-08-24T14:11:59;14.93;;;6.70;;
64601;SDS011;68371;42.630;23.192;2023-08-24T14:14:25;9.10;;;6.60;;
64601;SDS011;68371;42.630;23.192;2023-08-24T14:16:55;10.00;;;6.72;;
64601;SDS011;68371;42.630;23.192;2023-08-24T14:19:23;10.43;;;6.40;;
64601;SDS011;68371;42.630;23.192;2023-08-24T14:21:50;12.02;;;6.60;;
64601;SDS011;68371;42.630;23.192;2023-08-24T14:24:18;13.98;;;6.47;;
64601;SDS011;68371;42.630;23.192;2023-08-24T14:26:44;6.70;;;6.00;;
64601;SDS011;68371;42.630;23.192;2023-08-24T14:29:14;11.70;;;6.47;;
64601;SDS011;68371;42.630;23.192;2023-08-24T14:31:40;15.68;;;6.43;;
64601;SDS011;68371;42.630;23.192;2023-08-24T14:34:07;12.55;;;6.25;;
64601;SDS011;68371;42.630;23.192;2023-08-24T14:36:34;9.27;;;6.60;;
64601;SDS011;68371;42.630;23.192;2023-08-24T14:39:00;13.18;;;6.38;;